Time;durP1;ratioP1;P1;durP2;ratioP2;P2;SDS_P1;SDS_P2;PMS_P1;PMS_P2;Temp;Humidity;BMP_temperature;BMP_pressure;BME280_temperature;BME280_humidity;BME280_pressure;Samples;Min_cycle;Max_cycle;Signal;HPM_P1;HPM_P2
2021/04/22 00:00:18;;;;;;;3.42;1.48;;;25.30;43.10;;;;;;5071461;28;20141;-50
2021/04/22 00:02:44;;;;;;;4.03;1.90;;;25.30;43.10;;;;;;5070282;28;20037;-49
2021/04/22 00:05:19;;;;;;;4.15;1.83;;;25.30;43.10;;;;;;5072254;28;20021;-49
2021/04/22 00:07:47;;;;;;;2.10;1.65;;;25.30;43.10;;;;;;5072653;28;20107;-48
2021/04/22 00:10:15;;;;;;;2.47;1.45;;;25.30;43.10;;;;;;5072433;28;20028;-48
2021/04/22 00:12:41;;;;;;;5.35;2.30;;;25.30;43.00;;;;;;5075280;28;20036;-48
2021/04/22 00:15:16;;;;;;;6.78;2.75;;;25.30;43.00;;;;;;5077553;28;20024;-49
2021/04/22 00:17:44;;;;;;;5.43;2.10;;;25.30;42.80;;;;;;5076566;28;20501;-48
2021/04/22 00:20:12;;;;;;;7.95;2.95;;;25.30;42.80;;;;;;5076338;28;20439;-48
2021/04/22 00:22:38;;;;;;;3.80;1.95;;;25.30;42.60;;;;;;5076463;28;20074;-48
2021/04/22 00:25:05;;;;;;;2.55;1.83;;;25.30;43.10;;;;;;5058333;28;20036;-48
2021/04/22 00:27:31;;;;;;;4.43;1.75;;;25.30;42.40;;;;;;5076597;28;20062;-49
2021/04/22 00:29:57;;;;;;;4.60;1.58;;;25.30;42.50;;;;;;5076391;28;20142;-48
2021/04/22 00:32:23;;;;;;;4.05;2.20;;;25.30;42.60;;;;;;5076313;28;20133;-48
2021/04/22 00:34:49;;;;;;;3.45;1.80;;;25.30;42.50;;;;;;5076308;28;20449;-49
2021/04/22 00:37:15;;;;;;;2.88;1.70;;;25.30;42.50;;;;;;5076141;28;20028;-49
2021/04/22 00:39:41;;;;;;;5.13;1.80;;;25.30;42.40;;;;;;5075811;28;20443;-48
2021/04/22 00:42:07;;;;;;;6.13;2.05;;;25.30;42.40;;;;;;5074553;28;20028;-49
2021/04/22 00:44:34;;;;;;;2.85;1.38;;;25.30;42.40;;;;;;5040147;28;20115;-49
2021/04/22 00:47:00;;;;;;;3.72;1.77;;;25.30;42.50;;;;;;5074478;28;20512;-48
2021/04/22 00:49:26;;;;;;;7.28;2.17;;;25.20;42.30;;;;;;5056787;28;20461;-48
2021/04/22 00:51:53;;;;;;;4.25;1.70;;;25.30;42.20;;;;;;5073603;28;20048;-54
2021/04/22 00:54:20;;;;;;;4.90;1.88;;;25.20;42.20;;;;;;5066542;28;20068;-54
2021/04/22 00:56:48;;;;;;;4.03;2.30;;;25.20;42.30;;;;;;5056016;28;20366;-54
2021/04/22 00:59:14;;;;;;;3.78;1.45;;;25.20;42.30;;;;;;5074144;28;20522;-55
2021/04/22 01:01:40;;;;;;;5.47;2.20;;;25.20;42.20;;;;;;5074383;28;20082;-55
2021/04/22 01:04:06;;;;;;;3.55;1.30;;;25.20;42.30;;;;;;5075027;28;20017;-55
2021/04/22 01:06:32;;;;;;;3.17;1.90;;;25.20;42.50;;;;;;5075328;28;20059;-54
2021/04/22 01:09:05;;;;;;;3.53;1.13;;;25.20;42.40;;;;;;5075003;28;20016;-54
2021/04/22 01:11:32;;;;;;;3.20;1.30;;;25.10;42.20;;;;;;5075763;28;20111;-54
2021/04/22 01:13:58;;;;;;;5.05;1.38;;;25.20;42.40;;;;;;5075400;28;20088;-54
2021/04/22 01:16:24;;;;;;;1.65;1.15;;;25.20;42.40;;;;;;5075923;28;20028;-54
2021/04/22 01:18:50;;;;;;;2.00;1.23;;;25.10;42.40;;;;;;5075312;28;20427;-54
2021/04/22 01:21:24;;;;;;;3.67;1.08;;;25.20;42.50;;;;;;5075294;28;20150;-54
2021/04/22 01:23:51;;;;;;;4.18;1.00;;;25.10;42.40;;;;;;5075226;28;20079;-55
2021/04/22 01:26:23;;;;;;;4.72;1.10;;;25.20;42.60;;;;;;5057027;28;20024;-55
2021/04/22 01:28:50;;;;;;;1.38;0.80;;;25.10;42.50;;;;;;5075340;28;20028;-55
2021/04/22 01:31:17;;;;;;;2.10;1.08;;;25.20;42.60;;;;;;5074952;28;20419;-55
2021/04/22 01:33:44;;;;;;;3.33;0.90;;;25.20;42.70;;;;;;5074982;28;20024;-54
2021/04/22 01:36:10;;;;;;;1.63;0.95;;;25.10;42.60;;;;;;5057356;28;20036;-55
2021/04/22 01:38:38;;;;;;;2.78;1.30;;;25.10;42.60;;;;;;5074738;28;20068;-54
2021/04/22 01:41:05;;;;;;;2.70;1.27;;;25.10;42.60;;;;;;5074815;28;20020;-54
2021/04/22 01:43:31;;;;;;;1.45;0.95;;;25.10;42.70;;;;;;5074543;28;20036;-54
2021/04/22 01:45:59;;;;;;;2.40;1.27;;;25.10;42.70;;;;;;5074910;28;20074;-54
2021/04/22 01:48:27;;;;;;;3.92;0.98;;;25.10;42.70;;;;;;5074863;28;20488;-54
2021/04/22 01:50:53;;;;;;;3.35;1.05;;;25.20;42.80;;;;;;5056034;28;20033;-55
2021/04/22 01:53:20;;;;;;;1.80;1.23;;;25.20;42.80;;;;;;5075023;28;20028;-54
2021/04/22 01:55:49;;;;;;;2.33;0.75;;;25.20;42.90;;;;;;5074738;28;20028;-54
2021/04/22 01:58:21;;;;;;;1.58;1.30;;;25.10;42.80;;;;;;5074757;28;20478;-54
2021/04/22 02:00:53;;;;;;;2.53;1.00;;;25.10;42.90;;;;;;5074481;28;20058;-54
2021/04/22 02:03:21;;;;;;;2.92;1.20;;;25.10;42.80;;;;;;5074907;28;20356;-54
2021/04/22 02:05:47;;;;;;;3.38;0.90;;;25.10;42.90;;;;;;5074828;28;20099;-55
2021/04/22 02:08:14;;;;;;;1.65;0.95;;;25.20;43.00;;;;;;5074490;28;20013;-54
2021/04/22 02:10:41;;;;;;;1.23;0.98;;;25.10;42.90;;;;;;5074465;28;20035;-54
2021/04/22 02:13:09;;;;;;;2.58;0.93;;;25.10;42.90;;;;;;5074400;28;20032;-54
2021/04/22 02:15:36;;;;;;;1.92;1.00;;;25.20;43.00;;;;;;5074469;28;20463;-54
2021/04/22 02:18:03;;;;;;;2.20;0.90;;;25.10;42.90;;;;;;5056670;28;20036;-54
2021/04/22 02:20:29;;;;;;;1.85;1.05;;;25.10;43.00;;;;;;5055968;28;20024;-54
2021/04/22 02:22:55;;;;;;;2.72;1.00;;;25.10;43.00;;;;;;5074225;28;20049;-54
2021/04/22 02:25:26;;;;;;;1.50;0.88;;;25.10;43.00;;;;;;5073599;28;20033;-54
2021/04/22 02:27:53;;;;;;;1.27;0.73;;;25.10;42.90;;;;;;5073693;28;20044;-54
2021/04/22 02:30:30;;;;;;;2.03;0.90;;;25.10;43.10;;;;;;5073957;28;20028;-54
2021/04/22 02:32:58;;;;;;;1.58;1.05;;;25.10;43.10;;;;;;5074176;28;20060;-54
2021/04/22 02:35:29;;;;;;;1.75;1.02;;;25.10;43.00;;;;;;5073151;28;20474;-54
2021/04/22 02:37:56;;;;;;;0.90;0.90;;;25.10;43.00;;;;;;5073909;28;20036;-54
2021/04/22 02:40:24;;;;;;;1.42;0.90;;;25.10;43.10;;;;;;5073713;28;20482;-55
2021/04/22 02:42:51;;;;;;;1.30;0.90;;;25.10;43.10;;;;;;5074071;28;20162;-54
2021/04/22 02:45:25;;;;;;;2.22;1.13;;;25.10;43.10;;;;;;5073469;28;20028;-54
2021/04/22 02:47:51;;;;;;;1.10;0.80;;;25.10;43.10;;;;;;5055231;28;20290;-54
2021/04/22 02:50:22;;;;;;;0.95;0.80;;;25.10;43.20;;;;;;5073405;28;20117;-54
2021/04/22 02:52:48;;;;;;;1.67;0.70;;;25.10;43.20;;;;;;5073100;28;20085;-54
2021/04/22 02:55:15;;;;;;;1.05;0.80;;;25.10;43.10;;;;;;5072061;28;20140;-54
2021/04/22 02:57:42;;;;;;;1.10;0.75;;;25.10;43.20;;;;;;5056396;28;20040;-54
2021/04/22 03:00:11;;;;;;;1.35;0.85;;;25.00;43.20;;;;;;5055370;28;20024;-54
2021/04/22 03:02:37;;;;;;;0.90;0.80;;;25.10;43.20;;;;;;5054994;28;20493;-54
2021/04/22 03:05:04;;;;;;;1.63;0.95;;;25.10;43.20;;;;;;5073102;28;20185;-54
2021/04/22 03:07:30;;;;;;;1.55;0.90;;;25.00;43.20;;;;;;5073287;28;20025;-54
2021/04/22 03:09:57;;;;;;;1.58;1.05;;;25.10;43.20;;;;;;5073547;28;20115;-54
2021/04/22 03:12:23;;;;;;;2.20;0.85;;;25.00;43.20;;;;;;5072520;28;20033;-53
2021/04/22 03:14:49;;;;;;;0.98;0.80;;;25.00;43.30;;;;;;5063599;28;20029;-54
2021/04/22 03:17:15;;;;;;;2.85;0.75;;;25.00;43.30;;;;;;5053126;28;20386;-54
2021/04/22 03:19:41;;;;;;;1.75;0.80;;;25.00;43.30;;;;;;5053086;28;20403;-53
2021/04/22 03:22:07;;;;;;;1.38;0.70;;;25.00;43.30;;;;;;5052973;28;20125;-54
2021/04/22 03:24:33;;;;;;;1.45;0.68;;;25.00;43.30;;;;;;5053084;28;20493;-54
2021/04/22 03:26:59;;;;;;;1.23;0.77;;;25.00;43.30;;;;;;5052960;28;20021;-54
2021/04/22 03:29:25;;;;;;;1.42;0.90;;;25.00;43.40;;;;;;5053129;28;20040;-54
2021/04/22 03:31:51;;;;;;;1.08;0.70;;;25.00;43.40;;;;;;5052976;28;20033;-54
2021/04/22 03:34:17;;;;;;;0.82;0.80;;;25.00;43.40;;;;;;5052986;28;20036;-55
2021/04/22 03:36:43;;;;;;;1.48;1.05;;;25.00;43.20;;;;;;5053113;28;20505;-55
2021/04/22 03:39:09;;;;;;;1.08;0.80;;;25.00;43.30;;;;;;5052571;28;20123;-54
2021/04/22 03:41:36;;;;;;;1.83;0.90;;;24.90;43.20;;;;;;5073395;28;20462;-54
2021/04/22 03:44:02;;;;;;;2.67;1.58;;;24.90;43.10;;;;;;5072812;28;20035;-54
2021/04/22 03:46:28;;;;;;;2.28;0.98;;;25.00;43.00;;;;;;5072034;28;20029;-53
2021/04/22 03:48:54;;;;;;;2.55;1.42;;;25.00;43.00;;;;;;5054960;28;20032;-54
2021/04/22 03:51:20;;;;;;;1.65;1.30;;;24.90;42.90;;;;;;5073129;28;20085;-54
2021/04/22 03:53:46;;;;;;;2.17;0.93;;;24.90;42.60;;;;;;5072939;28;20040;-53
2021/04/22 03:56:12;;;;;;;1.45;0.98;;;24.90;42.70;;;;;;5073025;28;20039;-53
2021/04/22 03:58:38;;;;;;;3.72;1.10;;;24.90;42.60;;;;;;5073159;28;20074;-53
2021/04/22 04:01:04;;;;;;;0.98;0.73;;;24.90;42.60;;;;;;5072631;28;20441;-54
2021/04/22 04:03:30;;;;;;;3.33;1.02;;;24.90;42.60;;;;;;5072709;28;20382;-54
2021/04/22 04:05:56;;;;;;;1.08;0.60;;;24.90;42.50;;;;;;5072619;28;20027;-54
2021/04/22 04:08:23;;;;;;;1.40;0.55;;;24.90;42.50;;;;;;5072930;28;20039;-54
2021/04/22 04:10:49;;;;;;;2.10;0.80;;;24.90;42.60;;;;;;5054767;28;20490;-54
2021/04/22 04:13:15;;;;;;;3.88;0.80;;;24.90;42.40;;;;;;5072673;28;20063;-53
2021/04/22 04:15:45;;;;;;;0.98;0.70;;;24.90;42.40;;;;;;5073070;28;20039;-53
2021/04/22 04:18:12;;;;;;;;;;;24.90;42.40;;;;;;5073246;28;20068;-53
2021/04/22 04:20:38;;;;;;;4.20;0.95;;;24.90;42.60;;;;;;5072603;28;19908;-53
2021/04/22 04:23:04;;;;;;;1.48;0.90;;;24.90;42.30;;;;;;5072507;28;20119;-54
2021/04/22 04:25:30;;;;;;;3.17;0.90;;;24.90;42.30;;;;;;5072651;28;20133;-55
2021/04/22 04:27:57;;;;;;;2.90;0.70;;;24.90;42.30;;;;;;5072585;28;20024;-54
2021/04/22 04:30:23;;;;;;;1.60;1.10;;;24.80;42.30;;;;;;5072456;28;20086;-53
2021/04/22 04:32:49;;;;;;;3.25;0.80;;;24.80;42.30;;;;;;5072530;28;20024;-54
2021/04/22 04:35:15;;;;;;;1.20;0.90;;;24.80;42.30;;;;;;5054558;28;20048;-54
2021/04/22 04:37:42;;;;;;;1.20;0.70;;;24.80;42.30;;;;;;5072537;28;20036;-54
2021/04/22 04:40:11;;;;;;;1.67;1.10;;;24.80;42.40;;;;;;5072704;28;20133;-54
2021/04/22 04:42:38;;;;;;;1.55;0.70;;;24.80;42.30;;;;;;5072378;28;20025;-54
2021/04/22 04:45:05;;;;;;;3.45;1.50;;;24.80;42.30;;;;;;5072190;28;20086;-54
2021/04/22 04:47:32;;;;;;;1.25;0.80;;;24.80;42.30;;;;;;5054541;28;20513;-54
2021/04/22 04:49:58;;;;;;;1.63;0.90;;;24.80;42.40;;;;;;5072424;28;20028;-54
2021/04/22 04:52:24;;;;;;;1.27;1.05;;;24.80;42.40;;;;;;5072283;28;20082;-54
2021/04/22 04:54:50;;;;;;;2.13;1.30;;;24.80;42.30;;;;;;5071874;28;20091;-54
2021/04/22 04:57:16;;;;;;;1.83;0.98;;;24.80;42.30;;;;;;5072144;28;20047;-54
2021/04/22 04:59:42;;;;;;;1.92;0.80;;;24.70;42.30;;;;;;5075817;28;20035;-49
2021/04/22 05:02:08;;;;;;;2.13;1.25;;;24.80;42.30;;;;;;5075415;28;20066;-49
2021/04/22 05:04:34;;;;;;;1.55;1.02;;;24.80;42.30;;;;;;5075320;28;20028;-48
2021/04/22 05:07:00;;;;;;;1.15;0.80;;;24.70;42.40;;;;;;5074358;28;20048;-49
2021/04/22 05:09:26;;;;;;;1.50;0.93;;;24.80;42.40;;;;;;5057363;28;20033;-48
2021/04/22 05:11:52;;;;;;;1.88;0.63;;;24.70;42.30;;;;;;5075479;28;20035;-49
2021/04/22 05:14:18;;;;;;;1.25;0.93;;;24.70;42.30;;;;;;5073689;28;20025;-48
2021/04/22 05:16:44;;;;;;;1.25;0.80;;;24.80;42.40;;;;;;5057528;28;20036;-54
2021/04/22 05:19:10;;;;;;;1.50;0.90;;;24.80;42.40;;;;;;5057365;28;20039;-54
2021/04/22 05:21:37;;;;;;;1.65;0.88;;;24.70;42.30;;;;;;5075562;28;20052;-54
2021/04/22 05:24:03;;;;;;;3.25;0.90;;;24.70;42.40;;;;;;5075542;28;20033;-53
2021/04/22 05:26:29;;;;;;;0.80;0.70;;;24.80;42.40;;;;;;5074505;28;20517;-53
2021/04/22 05:28:55;;;;;;;2.30;0.65;;;24.70;42.40;;;;;;5075269;28;20123;-54
2021/04/22 05:31:22;;;;;;;1.02;0.70;;;24.70;42.40;;;;;;5075560;28;20065;-54
2021/04/22 05:33:48;;;;;;;2.40;0.70;;;24.70;42.40;;;;;;5075248;28;20028;-54
2021/04/22 05:36:15;;;;;;;2.17;1.00;;;24.70;42.50;;;;;;5075189;28;20028;-54
2021/04/22 05:38:41;;;;;;;1.38;0.80;;;24.70;42.50;;;;;;5075696;28;20037;-55
2021/04/22 05:41:07;;;;;;;1.80;0.70;;;24.70;42.50;;;;;;5074303;28;20454;-53
2021/04/22 05:43:33;;;;;;;2.80;0.90;;;24.70;42.50;;;;;;5075485;28;20094;-54
2021/04/22 05:46:00;;;;;;;1.38;1.05;;;24.70;42.50;;;;;;5075304;28;20055;-54
2021/04/22 05:48:26;;;;;;;1.88;0.70;;;24.70;42.50;;;;;;5075096;28;20408;-54
2021/04/22 05:50:52;;;;;;;3.03;0.90;;;24.70;42.50;;;;;;5075158;28;20052;-54
2021/04/22 05:53:18;;;;;;;2.47;0.85;;;24.70;42.50;;;;;;5074538;28;20508;-54
2021/04/22 05:55:45;;;;;;;2.05;1.08;;;24.70;42.50;;;;;;5074805;28;20513;-54
2021/04/22 05:58:11;;;;;;;1.58;0.70;;;24.70;42.50;;;;;;5074758;28;20029;-54
2021/04/22 06:00:37;;;;;;;2.08;0.70;;;24.70;42.60;;;;;;5056655;28;20040;-54
2021/04/22 06:03:04;;;;;;;1.88;0.82;;;24.70;42.60;;;;;;5054926;28;20096;-54
2021/04/22 06:05:30;;;;;;;2.30;1.05;;;24.70;42.60;;;;;;5056646;28;20056;-54
2021/04/22 06:07:56;;;;;;;1.63;0.57;;;24.70;42.70;;;;;;5072486;28;20060;-48
2021/04/22 06:10:22;;;;;;;2.10;1.00;;;24.70;42.70;;;;;;5073169;28;20033;-48
2021/04/22 06:12:49;;;;;;;2.10;1.20;;;24.70;42.70;;;;;;5073821;28;20825;-49
2021/04/22 06:15:17;;;;;;;1.45;0.70;;;24.70;42.70;;;;;;5074212;28;20126;-48
2021/04/22 06:17:44;;;;;;;4.00;1.05;;;24.70;42.70;;;;;;5056188;28;20093;-49
2021/04/22 06:20:27;;;;;;;1.48;0.90;;;24.70;42.70;;;;;;5074141;28;20033;-48
2021/04/22 06:22:54;;;;;;;2.90;0.90;;;24.70;42.70;;;;;;5073611;28;20052;-48
2021/04/22 06:25:21;;;;;;;1.60;1.20;;;24.70;42.70;;;;;;5073969;28;20029;-47
2021/04/22 06:27:49;;;;;;;2.95;1.05;;;24.70;42.70;;;;;;5074327;28;20024;-48
2021/04/22 06:30:15;;;;;;;2.35;1.08;;;24.70;42.70;;;;;;5074008;28;20033;-48
2021/04/22 06:32:41;;;;;;;1.60;1.10;;;24.70;42.70;;;;;;5074119;28;20023;-48
2021/04/22 06:35:10;;;;;;;2.90;1.40;;;24.70;42.70;;;;;;5074545;28;20029;-48
2021/04/22 06:37:37;;;;;;;4.68;1.00;;;24.70;42.70;;;;;;5074005;28;20076;-49
2021/04/22 06:40:15;;;;;;;3.53;1.30;;;24.70;42.70;;;;;;5073989;28;20120;-48
2021/04/22 06:42:42;;;;;;;6.35;1.30;;;24.70;42.80;;;;;;5073698;28;20029;-48
2021/04/22 06:45:11;;;;;;;4.30;1.40;;;24.70;42.80;;;;;;5073616;28;20033;-48
2021/04/22 06:47:38;;;;;;;3.60;1.25;;;24.70;42.80;;;;;;5073602;28;20059;-48
2021/04/22 06:50:10;;;;;;;2.58;1.13;;;24.70;42.80;;;;;;5073828;28;20033;-48
2021/04/22 06:52:36;;;;;;;3.25;1.73;;;24.70;42.80;;;;;;5073456;28;20068;-47
2021/04/22 06:55:15;;;;;;;5.03;1.60;;;24.70;42.80;;;;;;5073564;28;20059;-48
2021/04/22 06:57:41;;;;;;;2.17;1.33;;;24.70;42.80;;;;;;5073455;28;20372;-48
2021/04/22 07:00:11;;;;;;;4.53;1.50;;;24.70;42.80;;;;;;5073432;28;20056;-49
2021/04/22 07:02:37;;;;;;;4.38;1.23;;;24.70;42.80;;;;;;5073226;28;20143;-48
2021/04/22 07:05:08;;;;;;;4.13;1.00;;;24.70;42.80;;;;;;5055701;28;20031;-48
2021/04/22 07:07:34;;;;;;;4.38;1.42;;;24.70;42.80;;;;;;5073266;28;20020;-48
2021/04/22 07:10:00;;;;;;;3.40;1.48;;;24.70;42.90;;;;;;5073028;28;20159;-48
2021/04/22 07:12:26;;;;;;;3.20;1.40;;;24.70;42.90;;;;;;5073218;28;20032;-48
2021/04/22 07:14:53;;;;;;;2.17;1.15;;;24.70;42.90;;;;;;5072115;28;20461;-47
2021/04/22 07:17:19;;;;;;;3.75;1.50;;;24.70;42.90;;;;;;5055250;28;20107;-48
2021/04/22 07:19:45;;;;;;;2.97;1.45;;;24.70;42.90;;;;;;5054968;28;20126;-48
2021/04/22 07:22:11;;;;;;;3.85;1.33;;;24.70;42.90;;;;;;5072906;28;20059;-48
2021/04/22 07:24:39;;;;;;;6.97;2.08;;;24.70;42.90;;;;;;5055329;28;20025;-48
2021/04/22 07:27:09;;;;;;;3.25;2.03;;;24.70;42.90;;;;;;5072985;28;20020;-48
2021/04/22 07:29:35;;;;;;;8.23;3.20;;;24.70;42.90;;;;;;5072971;28;20123;-48
2021/04/22 07:32:01;;;;;;;5.30;2.10;;;24.70;42.80;;;;;;5072731;28;20415;-48
2021/04/22 07:34:27;;;;;;;5.03;2.58;;;24.70;42.80;;;;;;5072910;28;20390;-48
2021/04/22 07:36:55;;;;;;;8.43;2.88;;;24.70;42.80;;;;;;5073048;28;20028;-49
2021/04/22 07:39:21;;;;;;;4.03;2.30;;;24.70;42.70;;;;;;5072925;28;20033;-49
2021/04/22 07:41:47;;;;;;;7.13;2.50;;;24.70;43.40;;;;;;5073157;28;20386;-49
2021/04/22 07:44:13;;;;;;;6.65;2.50;;;24.70;42.80;;;;;;5072848;28;20032;-49
2021/04/22 07:46:39;;;;;;;8.05;3.03;;;24.70;42.90;;;;;;5073008;28;20386;-49
2021/04/22 07:49:06;;;;;;;7.65;2.63;;;24.70;42.90;;;;;;5073424;28;20024;-49
2021/04/22 07:51:33;;;;;;;11.80;3.10;;;24.70;42.80;;;;;;5072995;28;20521;-49
2021/04/22 07:53:59;;;;;;;4.13;2.78;;;24.70;42.90;;;;;;5072852;28;20112;-49
2021/04/22 07:56:25;;;;;;;8.07;2.72;;;24.80;42.90;;;;;;5072950;28;20060;-49
2021/04/22 07:58:51;;;;;;;6.80;2.72;;;24.70;42.90;;;;;;5073096;28;20448;-49
2021/04/22 08:01:17;;;;;;;10.40;3.30;;;24.80;42.90;;;;;;5072585;28;20068;-49
2021/04/22 08:03:43;;;;;;;7.63;2.85;;;24.80;42.90;;;;;;5072939;28;20435;-49
2021/04/22 08:06:09;;;;;;;9.30;3.35;;;24.80;43.00;;;;;;5054768;28;20040;-49
2021/04/22 08:08:35;;;;;;;9.43;3.08;;;24.80;43.00;;;;;;5072761;28;20035;-49
2021/04/22 08:11:01;;;;;;;5.85;3.05;;;24.80;43.00;;;;;;5072537;28;20044;-50
2021/04/22 08:13:28;;;;;;;4.85;3.08;;;24.90;43.10;;;;;;5072147;28;20512;-49
2021/04/22 08:15:54;;;;;;;4.45;2.80;;;24.90;43.20;;;;;;5054653;28;20051;-48
2021/04/22 08:18:25;;;;;;;5.45;2.63;;;24.90;43.20;;;;;;5054609;28;20094;-48
2021/04/22 08:20:52;;;;;;;7.45;3.70;;;24.90;43.30;;;;;;5072637;28;20055;-48
2021/04/22 08:23:18;;;;;;;9.15;3.88;;;24.90;43.30;;;;;;5072613;28;20039;-48
2021/04/22 08:25:48;;;;;;;10.18;3.92;;;24.90;43.50;;;;;;5072588;28;20028;-49
2021/04/22 08:28:16;;;;;;;7.10;4.10;;;24.90;44.00;;;;;;5072335;28;20024;-49
2021/04/22 08:31:01;;;;;;;6.90;3.40;;;24.90;44.40;;;;;;5072511;28;20059;-49
2021/04/22 08:33:30;;;;;;;10.32;3.15;;;24.90;44.60;;;;;;5074806;28;20025;-48
2021/04/22 08:35:58;;;;;;;7.70;3.45;;;24.90;44.90;;;;;;5076268;28;20100;-48
2021/04/22 08:38:25;;;;;;;6.60;3.45;;;24.90;45.00;;;;;;5076517;28;20416;-49
2021/04/22 08:40:52;;;;;;;9.50;3.25;;;24.90;45.00;;;;;;5075555;28;20086;-49
2021/04/22 08:43:18;;;;;;;7.45;2.88;;;24.90;45.20;;;;;;5075772;28;20020;-49
2021/04/22 08:45:46;;;;;;;7.13;3.75;;;24.90;45.20;;;;;;5076366;28;20720;-49
2021/04/22 08:48:12;;;;;;;4.97;3.00;;;24.90;45.50;;;;;;5057532;28;20041;-49
2021/04/22 08:50:41;;;;;;;8.57;2.90;;;24.90;45.80;;;;;;5075801;28;20859;-49
2021/04/22 08:53:17;;;;;;;13.10;3.08;;;24.90;45.90;;;;;;5075739;28;20029;-48
2021/04/22 08:55:44;;;;;;;6.95;2.85;;;24.90;46.10;;;;;;5075537;28;20035;-48
2021/04/22 08:58:10;;;;;;;7.13;3.25;;;24.90;46.20;;;;;;5075199;28;20024;-49
2021/04/22 09:00:50;;;;;;;5.70;3.05;;;24.90;46.30;;;;;;5057207;28;20032;-49
2021/04/22 09:03:18;;;;;;;6.50;3.55;;;24.90;46.60;;;;;;5074005;28;20036;-49
2021/04/22 09:05:44;;;;;;;8.40;3.40;;;24.90;46.70;;;;;;5075735;28;20122;-49
2021/04/22 09:08:12;;;;;;;8.32;3.28;;;24.90;46.70;;;;;;5075411;28;20067;-49
2021/04/22 09:10:38;;;;;;;7.60;3.20;;;25.00;47.10;;;;;;5075392;28;20482;-48
2021/04/22 09:13:13;;;;;;;18.35;12.95;;;25.00;47.00;;;;;;5075598;28;20028;-48
2021/04/22 09:15:41;;;;;;;25.23;18.38;;;25.00;47.10;;;;;;5075785;28;20063;-50
2021/04/22 09:18:14;;;;;;;27.10;19.10;;;25.10;47.30;;;;;;5075313;28;20063;-49
2021/04/22 09:20:53;;;;;;;23.38;16.02;;;25.10;47.50;;;;;;5075128;28;20406;-50
2021/04/22 09:23:20;;;;;;;20.27;15.55;;;25.10;47.60;;;;;;5075480;28;20035;-48
2021/04/22 09:25:54;;;;;;;19.10;14.63;;;25.10;47.80;;;;;;5075441;28;20032;-49
2021/04/22 09:28:20;;;;;;;19.13;14.77;;;25.20;47.80;;;;;;5075405;28;20036;-49
2021/04/22 09:30:46;;;;;;;18.52;14.02;;;25.30;47.80;;;;;;5075378;28;20021;-49
2021/04/22 09:33:28;;;;;;;25.55;14.55;;;25.30;47.70;;;;;;5075293;28;20036;-49
2021/04/22 09:36:21;;;;;;;21.63;14.10;;;25.30;47.80;;;;;;5075097;28;20039;-49
2021/04/22 09:38:54;;;;;;;19.70;11.63;;;25.30;47.90;;;;;;5057582;28;20040;-49
2021/04/22 09:41:23;;;;;;;20.05;13.07;;;25.30;48.20;;;;;;5075080;28;20028;-50
2021/04/22 09:44:02;;;;;;;14.10;10.88;;;25.40;48.00;;;;;;5074206;28;20483;-49
2021/04/22 09:46:28;;;;;;;15.25;9.35;;;25.40;48.40;;;;;;5056990;28;20121;-49
2021/04/22 09:48:56;;;;;;;11.25;6.40;;;25.50;48.20;;;;;;5057094;28;20462;-49
2021/04/22 09:51:31;;;;;;;13.63;7.28;;;25.60;48.70;;;;;;5074867;28;20419;-49
2021/04/22 09:54:05;;;;;;;8.40;5.03;;;25.60;49.20;;;;;;5074622;28;20453;-49
2021/04/22 09:56:47;;;;;;;12.60;5.47;;;25.60;49.20;;;;;;5056735;28;20036;-49
2021/04/22 09:59:17;;;;;;;20.75;12.02;;;25.70;49.00;;;;;;5056728;28;20394;-49
2021/04/22 10:02:01;;;;;;;41.45;31.42;;;25.80;48.90;;;;;;5074590;28;20029;-49
2021/04/22 10:04:31;;;;;;;22.00;16.30;;;25.80;48.80;;;;;;5056776;28;20036;-49
2021/04/22 10:06:57;;;;;;;23.90;17.33;;;25.90;49.40;;;;;;5074999;28;20025;-49
2021/04/22 10:09:33;;;;;;;26.23;19.48;;;26.00;49.00;;;;;;5074806;28;20078;-49
2021/04/22 10:11:59;;;;;;;29.10;23.70;;;26.00;49.20;;;;;;5056581;28;20020;-48
2021/04/22 10:14:36;;;;;;;25.92;19.13;;;26.10;48.90;;;;;;5074485;28;20033;-49
2021/04/22 10:17:15;;;;;;;26.30;16.48;;;26.10;49.10;;;;;;5074276;28;20466;-49
2021/04/22 10:19:42;;;;;;;21.17;15.20;;;26.10;48.90;;;;;;5074501;28;20575;-49
2021/04/22 10:22:08;;;;;;;20.52;13.30;;;26.20;48.80;;;;;;5074151;28;20040;-48
2021/04/22 10:24:35;;;;;;;17.65;10.05;;;26.40;48.80;;;;;;5074375;28;20103;-49
2021/04/22 10:27:04;;;;;;;14.15;7.82;;;26.30;48.90;;;;;;5056429;28;20033;-49
2021/04/22 10:29:32;;;;;;;8.15;4.72;;;26.40;49.10;;;;;;5074096;28;20039;-48
2021/04/22 10:31:58;;;;;;;9.20;4.72;;;26.40;48.90;;;;;;5074212;28;20028;-48
2021/04/22 10:34:30;;;;;;;11.10;4.60;;;26.40;48.80;;;;;;5074191;28;20033;-48
2021/04/22 10:36:58;;;;;;;12.65;4.20;;;26.50;48.90;;;;;;5074386;28;20036;-48
2021/04/22 10:39:25;;;;;;;8.98;4.45;;;26.50;48.90;;;;;;5073758;28;20466;-49
2021/04/22 10:41:53;;;;;;;11.98;5.00;;;26.50;48.90;;;;;;5073974;28;20446;-49
2021/04/22 10:44:22;;;;;;;8.88;4.22;;;26.50;48.80;;;;;;5073749;28;20035;-48
2021/04/22 10:46:49;;;;;;;7.90;4.13;;;26.60;48.90;;;;;;5073968;28;20137;-48
2021/04/22 10:49:16;;;;;;;8.63;4.35;;;26.60;48.80;;;;;;5073691;28;20107;-48
2021/04/22 10:51:43;;;;;;;9.23;3.90;;;26.60;48.70;;;;;;5072437;28;20068;-48
2021/04/22 10:54:09;;;;;;;9.80;4.28;;;26.70;48.70;;;;;;5073633;28;20028;-48
2021/04/22 10:56:35;;;;;;;10.90;4.03;;;26.70;48.70;;;;;;5073185;28;20033;-49
2021/04/22 10:59:01;;;;;;;5.97;3.10;;;26.70;48.50;;;;;;5073420;28;20020;-49
2021/04/22 11:01:39;;;;;;;7.25;3.42;;;26.80;48.50;;;;;;5073561;28;20024;-49
2021/04/22 11:04:08;;;;;;;7.10;3.75;;;26.80;48.50;;;;;;5073244;28;20406;-48
2021/04/22 11:06:40;;;;;;;6.78;4.22;;;26.80;48.40;;;;;;5055923;28;20407;-50
2021/04/22 11:09:16;;;;;;;7.30;3.83;;;26.80;48.40;;;;;;5073661;28;20032;-49
2021/04/22 11:12:06;;;;;;;8.18;4.07;;;26.80;48.30;;;;;;5073736;28;20041;-49
2021/04/22 11:14:37;;;;;;;6.82;3.45;;;26.90;48.60;;;;;;5073003;28;20035;-48
2021/04/22 11:17:05;;;;;;;9.55;3.55;;;26.90;48.70;;;;;;5073410;28;20036;-49
2021/04/22 11:19:36;;;;;;;9.27;3.90;;;26.90;48.70;;;;;;5055043;28;20028;-48
2021/04/22 11:22:12;;;;;;;7.45;3.90;;;26.90;48.50;;;;;;5073145;28;20124;-50
2021/04/22 11:24:44;;;;;;;8.82;3.47;;;27.00;48.40;;;;;;5073283;28;20028;-49
2021/04/22 11:27:17;;;;;;;11.27;3.70;;;27.10;48.80;;;;;;5073175;28;20482;-49
2021/04/22 11:29:55;;;;;;;9.98;3.90;;;27.10;48.70;;;;;;5073262;28;20028;-49
2021/04/22 11:32:34;;;;;;;12.57;4.70;;;27.20;49.00;;;;;;5073004;28;20085;-49
2021/04/22 11:35:12;;;;;;;6.97;3.90;;;27.30;49.10;;;;;;5054720;28;20043;-49
2021/04/22 11:37:42;;;;;;;13.25;3.92;;;27.30;49.10;;;;;;5072939;28;20466;-49
2021/04/22 11:40:11;;;;;;;10.00;4.28;;;27.40;49.00;;;;;;5072944;28;20028;-49
2021/04/22 11:42:39;;;;;;;7.70;3.38;;;27.40;48.90;;;;;;5073176;28;20036;-49
2021/04/22 11:45:08;;;;;;;10.68;3.85;;;27.50;48.80;;;;;;5073147;28;20374;-49
2021/04/22 11:47:35;;;;;;;16.20;4.22;;;27.60;48.90;;;;;;5072750;28;20058;-49
2021/04/22 11:50:02;;;;;;;18.17;5.88;;;27.60;48.70;;;;;;5072484;28;20527;-49
2021/04/22 11:52:39;;;;;;;20.75;5.88;;;27.60;48.50;;;;;;5072757;28;20029;-49
2021/04/22 11:55:13;;;;;;;15.00;7.22;;;27.70;48.40;;;;;;5072738;28;20043;-49
2021/04/22 11:57:57;;;;;;;19.25;7.03;;;27.80;48.30;;;;;;5072842;28;20037;-49
2021/04/22 12:00:29;;;;;;;13.68;5.75;;;27.80;48.00;;;;;;5072865;28;20385;-49
2021/04/22 12:02:56;;;;;;;9.57;4.60;;;27.90;47.90;;;;;;5073050;28;20043;-48
2021/04/22 12:05:23;;;;;;;11.65;3.60;;;28.00;48.00;;;;;;5072660;28;20527;-47
2021/04/22 12:08:10;;;;;;;11.05;3.72;;;28.10;47.80;;;;;;5072110;28;20063;-48
2021/04/22 12:10:47;;;;;;;11.77;4.53;;;28.10;47.60;;;;;;5072572;28;20029;-48
2021/04/22 12:13:16;;;;;;;11.27;3.63;;;28.20;47.30;;;;;;5072730;28;20470;-48
2021/04/22 12:15:45;;;;;;;13.65;3.97;;;28.20;47.30;;;;;;5072881;28;20079;-49
2021/04/22 12:18:22;;;;;;;17.10;4.07;;;28.20;47.30;;;;;;5072742;28;20850;-49
2021/04/22 12:20:50;;;;;;;9.57;4.05;;;28.20;47.30;;;;;;5054144;28;20041;-49
2021/04/22 12:23:27;;;;;;;13.23;3.83;;;28.10;47.40;;;;;;5072513;28;20060;-49
2021/04/22 12:25:53;;;;;;;8.85;3.75;;;28.10;47.50;;;;;;5072572;28;20109;-48
2021/04/22 12:28:19;;;;;;;19.45;4.53;;;28.10;47.60;;;;;;5054349;28;20028;-49
2021/04/22 12:30:48;;;;;;;24.63;5.20;;;28.10;47.70;;;;;;5072157;28;20028;-48
2021/04/22 12:33:16;;;;;;;18.52;4.57;;;28.10;47.80;;;;;;5072450;28;20040;-48
2021/04/22 12:36:00;;;;;;;15.45;4.38;;;28.00;48.00;;;;;;5054421;28;20056;-48
2021/04/22 12:38:35;;;;;;;8.20;3.88;;;28.00;48.10;;;;;;5071343;28;20052;-48
2021/04/22 12:41:04;;;;;;;8.85;3.95;;;28.00;48.40;;;;;;5072481;28;20021;-48
2021/04/22 12:43:32;;;;;;;11.13;3.93;;;27.90;48.20;;;;;;5072251;28;20021;-48
2021/04/22 12:46:11;;;;;;;10.27;3.17;;;27.90;48.20;;;;;;5072339;28;20016;-48
2021/04/22 12:48:39;;;;;;;11.05;3.42;;;27.90;48.20;;;;;;5072032;28;20029;-48